sensor_id;sensor_type;location;lat;lon;timestamp;P1;durP1;ratioP1;P2;durP2;ratioP2
48925;SDS011;39838;59.938;30.642;2023-08-17T00:02:04;24.10;;;18.20;;
48925;SDS011;39838;59.938;30.642;2023-08-17T00:04:31;23.13;;;17.88;;
48925;SDS011;39838;59.938;30.642;2023-08-17T00:06:59;23.52;;;18.38;;
48925;SDS011;39838;59.938;30.642;2023-08-17T00:09:26;23.65;;;17.58;;
48925;SDS011;39838;59.938;30.642;2023-08-17T00:11:53;26.00;;;18.50;;
48925;SDS011;39838;59.938;30.642;2023-08-17T00:14:22;27.00;;;19.10;;
48925;SDS011;39838;59.938;30.642;2023-08-17T00:16:49;23.75;;;17.02;;
48925;SDS011;39838;59.938;30.642;2023-08-17T00:19:16;23.35;;;18.10;;
48925;SDS011;39838;59.938;30.642;2023-08-17T00:21:44;24.75;;;18.85;;
48925;SDS011;39838;59.938;30.642;2023-08-17T00:24:11;23.85;;;18.23;;
48925;SDS011;39838;59.938;30.642;2023-08-17T00:26:39;23.10;;;18.70;;
48925;SDS011;39838;59.938;30.642;2023-08-17T00:29:06;22.27;;;17.40;;
48925;SDS011;39838;59.938;30.642;2023-08-17T00:31:34;21.70;;;16.73;;
48925;SDS011;39838;59.938;30.642;2023-08-17T00:34:02;21.60;;;17.50;;
48925;SDS011;39838;59.938;30.642;2023-08-17T00:36:29;20.25;;;16.60;;
48925;SDS011;39838;59.938;30.642;2023-08-17T00:38:56;22.98;;;16.45;;
48925;SDS011;39838;59.938;30.642;2023-08-17T00:41:23;19.27;;;15.38;;
48925;SDS011;39838;59.938;30.642;2023-08-17T00:43:50;20.92;;;15.50;;
48925;SDS011;39838;59.938;30.642;2023-08-17T00:46:18;25.45;;;16.52;;
48925;SDS011;39838;59.938;30.642;2023-08-17T00:48:49;20.38;;;16.08;;
48925;SDS011;39838;59.938;30.642;2023-08-17T00:51:16;20.33;;;16.17;;
48925;SDS011;39838;59.938;30.642;2023-08-17T00:53:45;31.70;;;18.13;;
48925;SDS011;39838;59.938;30.642;2023-08-17T00:56:13;23.75;;;16.98;;
48925;SDS011;39838;59.938;30.642;2023-08-17T00:58:40;19.73;;;16.65;;
48925;SDS011;39838;59.938;30.642;2023-08-17T01:01:08;21.55;;;17.55;;
48925;SDS011;39838;59.938;30.642;2023-08-17T01:03:36;22.85;;;17.33;;
48925;SDS011;39838;59.938;30.642;2023-08-17T01:06:05;24.13;;;18.65;;
48925;SDS011;39838;59.938;30.642;2023-08-17T01:08:32;23.40;;;19.33;;
48925;SDS011;39838;59.938;30.642;2023-08-17T01:11:01;27.70;;;19.13;;
48925;SDS011;39838;59.938;30.642;2023-08-17T01:13:38;23.00;;;18.88;;
48925;SDS011;39838;59.938;30.642;2023-08-17T01:16:14;27.10;;;18.80;;
48925;SDS011;39838;59.938;30.642;2023-08-17T01:18:47;29.38;;;17.48;;
48925;SDS011;39838;59.938;30.642;2023-08-17T01:21:18;23.55;;;17.83;;
48925;SDS011;39838;59.938;30.642;2023-08-17T01:23:50;26.90;;;17.67;;
48925;SDS011;39838;59.938;30.642;2023-08-17T01:26:17;21.73;;;17.20;;
48925;SDS011;39838;59.938;30.642;2023-08-17T01:28:44;24.70;;;17.15;;
48925;SDS011;39838;59.938;30.642;2023-08-17T01:31:14;24.85;;;16.95;;
48925;SDS011;39838;59.938;30.642;2023-08-17T01:33:48;26.65;;;17.83;;
48925;SDS011;39838;59.938;30.642;2023-08-17T01:36:20;20.17;;;16.13;;
48925;SDS011;39838;59.938;30.642;2023-08-17T01:38:53;27.08;;;18.23;;
48925;SDS011;39838;59.938;30.642;2023-08-17T01:41:23;24.67;;;18.27;;
48925;SDS011;39838;59.938;30.642;2023-08-17T01:43:51;27.17;;;18.38;;
48925;SDS011;39838;59.938;30.642;2023-08-17T01:46:20;25.30;;;16.02;;
48925;SDS011;39838;59.938;30.642;2023-08-17T01:48:47;19.15;;;14.93;;
48925;SDS011;39838;59.938;30.642;2023-08-17T01:51:17;23.92;;;15.57;;
48925;SDS011;39838;59.938;30.642;2023-08-17T01:53:45;21.80;;;18.23;;
48925;SDS011;39838;59.938;30.642;2023-08-17T01:56:14;22.50;;;17.10;;
48925;SDS011;39838;59.938;30.642;2023-08-17T01:58:41;21.38;;;17.98;;
48925;SDS011;39838;59.938;30.642;2023-08-17T02:01:09;24.73;;;17.23;;
48925;SDS011;39838;59.938;30.642;2023-08-17T02:03:36;23.77;;;17.17;;
48925;SDS011;39838;59.938;30.642;2023-08-17T02:06:04;25.20;;;17.83;;
48925;SDS011;39838;59.938;30.642;2023-08-17T02:08:32;23.67;;;18.25;;
48925;SDS011;39838;59.938;30.642;2023-08-17T02:11:00;27.00;;;18.85;;
48925;SDS011;39838;59.938;30.642;2023-08-17T02:13:29;31.52;;;19.23;;
48925;SDS011;39838;59.938;30.642;2023-08-17T02:15:56;26.42;;;19.40;;
48925;SDS011;39838;59.938;30.642;2023-08-17T02:18:43;20.13;;;16.08;;
48925;SDS011;39838;59.938;30.642;2023-08-17T02:21:10;19.13;;;14.75;;
48925;SDS011;39838;59.938;30.642;2023-08-17T02:23:37;19.73;;;15.70;;
48925;SDS011;39838;59.938;30.642;2023-08-17T02:26:05;22.02;;;14.05;;
48925;SDS011;39838;59.938;30.642;2023-08-17T02:28:33;17.70;;;13.88;;
48925;SDS011;39838;59.938;30.642;2023-08-17T02:31:00;14.57;;;12.00;;
48925;SDS011;39838;59.938;30.642;2023-08-17T02:33:28;16.50;;;13.50;;
48925;SDS011;39838;59.938;30.642;2023-08-17T02:35:55;18.55;;;12.10;;
48925;SDS011;39838;59.938;30.642;2023-08-17T02:38:22;17.77;;;12.52;;
48925;SDS011;39838;59.938;30.642;2023-08-17T02:40:50;17.30;;;12.27;;
48925;SDS011;39838;59.938;30.642;2023-08-17T02:43:17;18.25;;;12.77;;
48925;SDS011;39838;59.938;30.642;2023-08-17T02:45:45;16.60;;;12.48;;
48925;SDS011;39838;59.938;30.642;2023-08-17T02:48:13;19.98;;;13.52;;
48925;SDS011;39838;59.938;30.642;2023-08-17T02:50:40;16.40;;;13.07;;
48925;SDS011;39838;59.938;30.642;2023-08-17T02:53:07;20.58;;;13.45;;
48925;SDS011;39838;59.938;30.642;2023-08-17T02:55:34;19.35;;;13.35;;
48925;SDS011;39838;59.938;30.642;2023-08-17T02:58:01;17.35;;;12.20;;
48925;SDS011;39838;59.938;30.642;2023-08-17T03:00:29;18.42;;;12.43;;
48925;SDS011;39838;59.938;30.642;2023-08-17T03:02:58;14.15;;;11.57;;
48925;SDS011;39838;59.938;30.642;2023-08-17T03:05:25;17.98;;;11.95;;
48925;SDS011;39838;59.938;30.642;2023-08-17T03:07:52;15.93;;;10.80;;
48925;SDS011;39838;59.938;30.642;2023-08-17T03:10:19;13.45;;;11.45;;
48925;SDS011;39838;59.938;30.642;2023-08-17T03:12:46;13.95;;;10.18;;
48925;SDS011;39838;59.938;30.642;2023-08-17T03:15:14;14.38;;;10.57;;
48925;SDS011;39838;59.938;30.642;2023-08-17T03:17:41;16.17;;;10.70;;
48925;SDS011;39838;59.938;30.642;2023-08-17T03:20:10;14.32;;;11.30;;
48925;SDS011;39838;59.938;30.642;2023-08-17T03:22:37;14.68;;;11.48;;
48925;SDS011;39838;59.938;30.642;2023-08-17T03:25:05;17.00;;;11.18;;
48925;SDS011;39838;59.938;30.642;2023-08-17T03:27:33;16.50;;;12.05;;
48925;SDS011;39838;59.938;30.642;2023-08-17T03:30:00;14.48;;;12.00;;
48925;SDS011;39838;59.938;30.642;2023-08-17T03:32:29;15.93;;;13.07;;
48925;SDS011;39838;59.938;30.642;2023-08-17T03:34:56;15.13;;;12.70;;
48925;SDS011;39838;59.938;30.642;2023-08-17T03:37:25;14.20;;;12.50;;
48925;SDS011;39838;59.938;30.642;2023-08-17T03:39:52;15.63;;;12.38;;
48925;SDS011;39838;59.938;30.642;2023-08-17T03:42:19;15.38;;;12.00;;
48925;SDS011;39838;59.938;30.642;2023-08-17T03:44:46;14.70;;;11.15;;
48925;SDS011;39838;59.938;30.642;2023-08-17T03:47:13;13.15;;;10.82;;
48925;SDS011;39838;59.938;30.642;2023-08-17T03:49:41;13.00;;;10.68;;
48925;SDS011;39838;59.938;30.642;2023-08-17T03:52:08;12.70;;;10.10;;
48925;SDS011;39838;59.938;30.642;2023-08-17T03:54:36;13.25;;;11.85;;
48925;SDS011;39838;59.938;30.642;2023-08-17T03:57:03;15.60;;;12.48;;
48925;SDS011;39838;59.938;30.642;2023-08-17T03:59:31;17.20;;;13.07;;
48925;SDS011;39838;59.938;30.642;2023-08-17T04:01:58;15.52;;;11.48;;
48925;SDS011;39838;59.938;30.642;2023-08-17T04:04:26;13.02;;;10.40;;
48925;SDS011;39838;59.938;30.642;2023-08-17T04:06:53;15.07;;;10.65;;
48925;SDS011;39838;59.938;30.642;2023-08-17T04:09:20;12.38;;;10.23;;
48925;SDS011;39838;59.938;30.642;2023-08-17T04:11:49;13.15;;;10.10;;
48925;SDS011;39838;59.938;30.642;2023-08-17T04:14:16;12.95;;;10.18;;
48925;SDS011;39838;59.938;30.642;2023-08-17T04:16:43;11.93;;;9.75;;
48925;SDS011;39838;59.938;30.642;2023-08-17T04:19:11;12.18;;;9.32;;
48925;SDS011;39838;59.938;30.642;2023-08-17T04:21:38;11.82;;;9.23;;
48925;SDS011;39838;59.938;30.642;2023-08-17T04:24:05;13.18;;;9.32;;
48925;SDS011;39838;59.938;30.642;2023-08-17T04:26:33;11.55;;;9.30;;
48925;SDS011;39838;59.938;30.642;2023-08-17T04:29:01;12.15;;;8.52;;
48925;SDS011;39838;59.938;30.642;2023-08-17T04:31:29;11.63;;;9.05;;
48925;SDS011;39838;59.938;30.642;2023-08-17T04:33:56;13.23;;;8.48;;
48925;SDS011;39838;59.938;30.642;2023-08-17T04:36:23;11.25;;;8.75;;
48925;SDS011;39838;59.938;30.642;2023-08-17T04:38:50;10.77;;;8.43;;
48925;SDS011;39838;59.938;30.642;2023-08-17T04:41:17;9.48;;;8.05;;
48925;SDS011;39838;59.938;30.642;2023-08-17T04:43:44;9.27;;;7.82;;
48925;SDS011;39838;59.938;30.642;2023-08-17T04:46:13;10.63;;;8.02;;
48925;SDS011;39838;59.938;30.642;2023-08-17T04:48:40;8.52;;;7.55;;
48925;SDS011;39838;59.938;30.642;2023-08-17T04:51:08;8.50;;;7.47;;
48925;SDS011;39838;59.938;30.642;2023-08-17T04:53:35;9.95;;;7.57;;
48925;SDS011;39838;59.938;30.642;2023-08-17T04:56:03;8.27;;;7.35;;
48925;SDS011;39838;59.938;30.642;2023-08-17T04:58:30;9.93;;;6.95;;
48925;SDS011;39838;59.938;30.642;2023-08-17T05:00:58;7.80;;;6.47;;
48925;SDS011;39838;59.938;30.642;2023-08-17T05:03:27;9.05;;;6.78;;
48925;SDS011;39838;59.938;30.642;2023-08-17T05:05:56;10.93;;;6.03;;
48925;SDS011;39838;59.938;30.642;2023-08-17T05:08:23;9.52;;;6.00;;
48925;SDS011;39838;59.938;30.642;2023-08-17T05:10:50;8.90;;;6.45;;
48925;SDS011;39838;59.938;30.642;2023-08-17T05:13:17;10.15;;;6.65;;
48925;SDS011;39838;59.938;30.642;2023-08-17T05:15:44;10.68;;;6.22;;
48925;SDS011;39838;59.938;30.642;2023-08-17T05:18:11;9.80;;;6.38;;
48925;SDS011;39838;59.938;30.642;2023-08-17T05:20:40;10.15;;;6.35;;
48925;SDS011;39838;59.938;30.642;2023-08-17T05:23:07;10.50;;;6.32;;
48925;SDS011;39838;59.938;30.642;2023-08-17T05:25:34;8.43;;;6.10;;
48925;SDS011;39838;59.938;30.642;2023-08-17T05:28:02;9.43;;;6.15;;
48925;SDS011;39838;59.938;30.642;2023-08-17T05:30:29;9.82;;;6.05;;
48925;SDS011;39838;59.938;30.642;2023-08-17T05:32:56;8.25;;;6.70;;
48925;SDS011;39838;59.938;30.642;2023-08-17T05:35:23;8.38;;;6.82;;
48925;SDS011;39838;59.938;30.642;2023-08-17T05:37:52;8.35;;;6.60;;
48925;SDS011;39838;59.938;30.642;2023-08-17T05:40:19;9.38;;;6.90;;
48925;SDS011;39838;59.938;30.642;2023-08-17T05:42:46;9.15;;;7.45;;
48925;SDS011;39838;59.938;30.642;2023-08-17T05:45:14;9.43;;;7.38;;
48925;SDS011;39838;59.938;30.642;2023-08-17T05:47:41;8.93;;;7.65;;
48925;SDS011;39838;59.938;30.642;2023-08-17T05:50:08;9.70;;;7.18;;
48925;SDS011;39838;59.938;30.642;2023-08-17T05:52:36;10.95;;;7.82;;
48925;SDS011;39838;59.938;30.642;2023-08-17T05:55:05;9.50;;;7.50;;
48925;SDS011;39838;59.938;30.642;2023-08-17T05:57:32;13.07;;;8.00;;
48925;SDS011;39838;59.938;30.642;2023-08-17T05:59:59;10.45;;;7.70;;
48925;SDS011;39838;59.938;30.642;2023-08-17T06:02:26;11.23;;;8.00;;
48925;SDS011;39838;59.938;30.642;2023-08-17T06:04:54;10.27;;;8.25;;
48925;SDS011;39838;59.938;30.642;2023-08-17T06:07:21;9.18;;;7.63;;
48925;SDS011;39838;59.938;30.642;2023-08-17T06:09:48;11.50;;;8.82;;
48925;SDS011;39838;59.938;30.642;2023-08-17T06:12:17;11.38;;;8.35;;
48925;SDS011;39838;59.938;30.642;2023-08-17T06:14:44;11.13;;;8.40;;
48925;SDS011;39838;59.938;30.642;2023-08-17T06:17:11;13.93;;;9.00;;
48925;SDS011;39838;59.938;30.642;2023-08-17T06:19:38;11.45;;;8.63;;
48925;SDS011;39838;59.938;30.642;2023-08-17T06:22:06;9.77;;;8.55;;
48925;SDS011;39838;59.938;30.642;2023-08-17T06:24:33;14.75;;;9.23;;
48925;SDS011;39838;59.938;30.642;2023-08-17T06:27:00;9.75;;;8.75;;
48925;SDS011;39838;59.938;30.642;2023-08-17T06:29:29;17.38;;;9.90;;
48925;SDS011;39838;59.938;30.642;2023-08-17T06:31:56;12.45;;;9.75;;
48925;SDS011;39838;59.938;30.642;2023-08-17T06:34:23;14.95;;;9.43;;
48925;SDS011;39838;59.938;30.642;2023-08-17T06:36:57;12.57;;;8.95;;
48925;SDS011;39838;59.938;30.642;2023-08-17T06:39:26;11.88;;;8.77;;
48925;SDS011;39838;59.938;30.642;2023-08-17T06:41:54;12.02;;;8.57;;
48925;SDS011;39838;59.938;30.642;2023-08-17T06:44:21;13.05;;;8.82;;
48925;SDS011;39838;59.938;30.642;2023-08-17T06:46:50;12.23;;;9.30;;
48925;SDS011;39838;59.938;30.642;2023-08-17T06:49:17;12.50;;;9.20;;
48925;SDS011;39838;59.938;30.642;2023-08-17T06:51:44;13.75;;;8.98;;
48925;SDS011;39838;59.938;30.642;2023-08-17T06:54:11;13.65;;;9.27;;
48925;SDS011;39838;59.938;30.642;2023-08-17T06:56:38;11.15;;;8.20;;
48925;SDS011;39838;59.938;30.642;2023-08-17T06:59:06;13.57;;;8.68;;
48925;SDS011;39838;59.938;30.642;2023-08-17T07:01:33;13.27;;;7.85;;
48925;SDS011;39838;59.938;30.642;2023-08-17T07:04:02;9.48;;;7.32;;
48925;SDS011;39838;59.938;30.642;2023-08-17T07:06:29;9.05;;;7.55;;
48925;SDS011;39838;59.938;30.642;2023-08-17T07:08:57;8.65;;;6.88;;
48925;SDS011;39838;59.938;30.642;2023-08-17T07:11:24;11.30;;;6.97;;
48925;SDS011;39838;59.938;30.642;2023-08-17T07:13:52;14.02;;;7.32;;
48925;SDS011;39838;59.938;30.642;2023-08-17T07:16:19;11.98;;;7.32;;
48925;SDS011;39838;59.938;30.642;2023-08-17T07:18:46;9.13;;;6.97;;
48925;SDS011;39838;59.938;30.642;2023-08-17T07:21:15;10.38;;;6.88;;
48925;SDS011;39838;59.938;30.642;2023-08-17T07:23:43;12.20;;;6.82;;
48925;SDS011;39838;59.938;30.642;2023-08-17T07:26:12;9.07;;;7.30;;
48925;SDS011;39838;59.938;30.642;2023-08-17T07:28:39;10.38;;;7.38;;
48925;SDS011;39838;59.938;30.642;2023-08-17T07:31:06;12.65;;;7.00;;
48925;SDS011;39838;59.938;30.642;2023-08-17T07:33:33;16.27;;;7.45;;
48925;SDS011;39838;59.938;30.642;2023-08-17T07:36:01;10.90;;;7.57;;
48925;SDS011;39838;59.938;30.642;2023-08-17T07:38:29;10.80;;;7.18;;
48925;SDS011;39838;59.938;30.642;2023-08-17T07:40:57;9.57;;;6.38;;
48925;SDS011;39838;59.938;30.642;2023-08-17T07:43:24;8.30;;;6.32;;
48925;SDS011;39838;59.938;30.642;2023-08-17T07:45:54;9.23;;;6.25;;
48925;SDS011;39838;59.938;30.642;2023-08-17T07:48:21;10.00;;;6.20;;
48925;SDS011;39838;59.938;30.642;2023-08-17T07:50:49;10.63;;;6.45;;
48925;SDS011;39838;59.938;30.642;2023-08-17T07:53:17;8.20;;;6.20;;
48925;SDS011;39838;59.938;30.642;2023-08-17T07:55:45;8.88;;;5.70;;
48925;SDS011;39838;59.938;30.642;2023-08-17T07:58:13;10.43;;;6.43;;
48925;SDS011;39838;59.938;30.642;2023-08-17T08:00:40;11.80;;;6.13;;
48925;SDS011;39838;59.938;30.642;2023-08-17T08:03:07;11.52;;;5.95;;
48925;SDS011;39838;59.938;30.642;2023-08-17T08:05:34;11.23;;;6.10;;
48925;SDS011;39838;59.938;30.642;2023-08-17T08:08:02;10.32;;;6.43;;
48925;SDS011;39838;59.938;30.642;2023-08-17T08:10:29;11.13;;;6.40;;
48925;SDS011;39838;59.938;30.642;2023-08-17T08:12:58;9.50;;;6.47;;
48925;SDS011;39838;59.938;30.642;2023-08-17T08:15:25;9.15;;;6.25;;
48925;SDS011;39838;59.938;30.642;2023-08-17T08:17:52;9.63;;;5.60;;
48925;SDS011;39838;59.938;30.642;2023-08-17T08:20:20;6.95;;;5.18;;
48925;SDS011;39838;59.938;30.642;2023-08-17T08:22:47;11.65;;;4.88;;
48925;SDS011;39838;59.938;30.642;2023-08-17T08:25:14;7.78;;;5.28;;
48925;SDS011;39838;59.938;30.642;2023-08-17T08:27:42;8.18;;;5.03;;
48925;SDS011;39838;59.938;30.642;2023-08-17T08:30:10;7.40;;;4.43;;
48925;SDS011;39838;59.938;30.642;2023-08-17T08:32:38;7.13;;;4.72;;
48925;SDS011;39838;59.938;30.642;2023-08-17T08:35:05;8.07;;;4.68;;
48925;SDS011;39838;59.938;30.642;2023-08-17T08:37:33;9.82;;;4.65;;
48925;SDS011;39838;59.938;30.642;2023-08-17T08:40:00;7.22;;;4.20;;
48925;SDS011;39838;59.938;30.642;2023-08-17T08:42:30;9.38;;;4.00;;
48925;SDS011;39838;59.938;30.642;2023-08-17T08:44:57;7.60;;;4.30;;
48925;SDS011;39838;59.938;30.642;2023-08-17T08:47:26;6.18;;;4.13;;
48925;SDS011;39838;59.938;30.642;2023-08-17T08:49:58;6.78;;;4.28;;
48925;SDS011;39838;59.938;30.642;2023-08-17T08:52:34;7.50;;;4.45;;
48925;SDS011;39838;59.938;30.642;2023-08-17T08:55:05;8.60;;;4.70;;
48925;SDS011;39838;59.938;30.642;2023-08-17T08:57:38;8.38;;;4.55;;
48925;SDS011;39838;59.938;30.642;2023-08-17T09:00:06;7.63;;;4.43;;
48925;SDS011;39838;59.938;30.642;2023-08-17T09:02:36;6.40;;;4.55;;
48925;SDS011;39838;59.938;30.642;2023-08-17T09:05:04;8.20;;;4.90;;
48925;SDS011;39838;59.938;30.642;2023-08-17T09:07:33;8.00;;;4.78;;
48925;SDS011;39838;59.938;30.642;2023-08-17T09:10:01;6.70;;;4.50;;
48925;SDS011;39838;59.938;30.642;2023-08-17T09:12:30;9.40;;;4.65;;
48925;SDS011;39838;59.938;30.642;2023-08-17T09:14:59;6.30;;;4.53;;
48925;SDS011;39838;59.938;30.642;2023-08-17T09:17:27;9.77;;;4.75;;
48925;SDS011;39838;59.938;30.642;2023-08-17T09:19:56;8.48;;;4.80;;
48925;SDS011;39838;59.938;30.642;2023-08-17T09:22:23;5.72;;;4.25;;
48925;SDS011;39838;59.938;30.642;2023-08-17T09:24:50;8.05;;;4.55;;
48925;SDS011;39838;59.938;30.642;2023-08-17T09:27:18;6.95;;;4.30;;
48925;SDS011;39838;59.938;30.642;2023-08-17T09:29:46;6.57;;;4.43;;
48925;SDS011;39838;59.938;30.642;2023-08-17T09:32:14;7.70;;;4.07;;
48925;SDS011;39838;59.938;30.642;2023-08-17T09:34:43;8.98;;;4.30;;
48925;SDS011;39838;59.938;30.642;2023-08-17T09:37:12;7.10;;;4.07;;
48925;SDS011;39838;59.938;30.642;2023-08-17T09:39:40;8.43;;;4.13;;
48925;SDS011;39838;59.938;30.642;2023-08-17T09:42:07;5.65;;;4.00;;
48925;SDS011;39838;59.938;30.642;2023-08-17T09:44:36;5.65;;;4.10;;
48925;SDS011;39838;59.938;30.642;2023-08-17T09:47:04;5.35;;;3.78;;
48925;SDS011;39838;59.938;30.642;2023-08-17T09:49:32;6.40;;;4.20;;
48925;SDS011;39838;59.938;30.642;2023-08-17T09:51:59;7.50;;;4.05;;
48925;SDS011;39838;59.938;30.642;2023-08-17T09:54:30;6.18;;;4.00;;
48925;SDS011;39838;59.938;30.642;2023-08-17T09:56:58;9.23;;;4.30;;
48925;SDS011;39838;59.938;30.642;2023-08-17T09:59:25;5.93;;;4.00;;
48925;SDS011;39838;59.938;30.642;2023-08-17T10:01:52;5.78;;;3.92;;
48925;SDS011;39838;59.938;30.642;2023-08-17T10:04:21;6.30;;;3.85;;
48925;SDS011;39838;59.938;30.642;2023-08-17T10:06:51;5.95;;;4.00;;
48925;SDS011;39838;59.938;30.642;2023-08-17T10:09:24;7.80;;;3.97;;
48925;SDS011;39838;59.938;30.642;2023-08-17T10:11:57;7.70;;;4.00;;
48925;SDS011;39838;59.938;30.642;2023-08-17T10:14:29;8.30;;;4.22;;
48925;SDS011;39838;59.938;30.642;2023-08-17T10:17:05;5.85;;;4.22;;
48925;SDS011;39838;59.938;30.642;2023-08-17T10:19:37;5.18;;;4.00;;
48925;SDS011;39838;59.938;30.642;2023-08-17T10:22:11;5.95;;;3.92;;
48925;SDS011;39838;59.938;30.642;2023-08-17T10:24:44;5.95;;;4.00;;
48925;SDS011;39838;59.938;30.642;2023-08-17T10:27:14;5.22;;;3.83;;
48925;SDS011;39838;59.938;30.642;2023-08-17T10:29:43;5.57;;;4.00;;
48925;SDS011;39838;59.938;30.642;2023-08-17T10:32:11;5.43;;;4.18;;
48925;SDS011;39838;59.938;30.642;2023-08-17T10:34:39;5.97;;;4.07;;
48925;SDS011;39838;59.938;30.642;2023-08-17T10:37:08;7.75;;;4.25;;
48925;SDS011;39838;59.938;30.642;2023-08-17T10:39:35;6.88;;;4.25;;
48925;SDS011;39838;59.938;30.642;2023-08-17T10:42:05;9.05;;;4.25;;
48925;SDS011;39838;59.938;30.642;2023-08-17T10:44:40;6.72;;;4.43;;
48925;SDS011;39838;59.938;30.642;2023-08-17T10:47:22;6.78;;;4.97;;
48925;SDS011;39838;59.938;30.642;2023-08-17T10:49:50;5.95;;;4.32;;
48925;SDS011;39838;59.938;30.642;2023-08-17T10:52:25;7.28;;;4.40;;
48925;SDS011;39838;59.938;30.642;2023-08-17T10:54:53;7.18;;;4.20;;
48925;SDS011;39838;59.938;30.642;2023-08-17T10:57:28;6.03;;;4.13;;
48925;SDS011;39838;59.938;30.642;2023-08-17T11:00:07;7.47;;;4.97;;
48925;SDS011;39838;59.938;30.642;2023-08-17T11:02:53;8.18;;;4.72;;
48925;SDS011;39838;59.938;30.642;2023-08-17T11:08:09;7.55;;;4.70;;
48925;SDS011;39838;59.938;30.642;2023-08-17T11:10:39;8.75;;;4.40;;
48925;SDS011;39838;59.938;30.642;2023-08-17T11:13:08;5.60;;;4.10;;
48925;SDS011;39838;59.938;30.642;2023-08-17T11:15:38;6.32;;;4.05;;
48925;SDS011;39838;59.938;30.642;2023-08-17T11:18:08;8.90;;;4.38;;
48925;SDS011;39838;59.938;30.642;2023-08-17T11:20:36;6.38;;;4.25;;
48925;SDS011;39838;59.938;30.642;2023-08-17T11:23:05;7.35;;;4.00;;
48925;SDS011;39838;59.938;30.642;2023-08-17T11:25:33;9.25;;;4.57;;
48925;SDS011;39838;59.938;30.642;2023-08-17T11:28:01;7.22;;;4.40;;
48925;SDS011;39838;59.938;30.642;2023-08-17T11:30:28;6.55;;;4.15;;
48925;SDS011;39838;59.938;30.642;2023-08-17T11:32:58;5.53;;;4.20;;
48925;SDS011;39838;59.938;30.642;2023-08-17T11:35:25;5.57;;;4.50;;
48925;SDS011;39838;59.938;30.642;2023-08-17T11:37:53;6.70;;;5.00;;
48925;SDS011;39838;59.938;30.642;2023-08-17T11:40:20;8.57;;;4.47;;
48925;SDS011;39838;59.938;30.642;2023-08-17T11:42:47;12.38;;;4.97;;
48925;SDS011;39838;59.938;30.642;2023-08-17T11:45:15;7.28;;;4.82;;
48925;SDS011;39838;59.938;30.642;2023-08-17T11:47:42;10.88;;;4.72;;
48925;SDS011;39838;59.938;30.642;2023-08-17T11:50:11;7.55;;;4.47;;
48925;SDS011;39838;59.938;30.642;2023-08-17T11:52:40;8.43;;;4.47;;
48925;SDS011;39838;59.938;30.642;2023-08-17T11:55:08;6.60;;;4.32;;
48925;SDS011;39838;59.938;30.642;2023-08-17T11:57:36;6.82;;;4.10;;
48925;SDS011;39838;59.938;30.642;2023-08-17T12:00:04;7.97;;;4.63;;
48925;SDS011;39838;59.938;30.642;2023-08-17T12:02:33;7.63;;;4.10;;
48925;SDS011;39838;59.938;30.642;2023-08-17T12:05:03;6.47;;;4.40;;
48925;SDS011;39838;59.938;30.642;2023-08-17T12:07:33;9.23;;;4.63;;
48925;SDS011;39838;59.938;30.642;2023-08-17T12:10:02;9.52;;;4.93;;
48925;SDS011;39838;59.938;30.642;2023-08-17T12:12:36;8.18;;;5.40;;
48925;SDS011;39838;59.938;30.642;2023-08-17T12:15:04;9.25;;;5.13;;
48925;SDS011;39838;59.938;30.642;2023-08-17T12:17:32;7.72;;;4.95;;
48925;SDS011;39838;59.938;30.642;2023-08-17T12:19:59;9.68;;;4.90;;
48925;SDS011;39838;59.938;30.642;2023-08-17T12:22:29;9.23;;;4.97;;
48925;SDS011;39838;59.938;30.642;2023-08-17T12:24:57;7.60;;;4.88;;
48925;SDS011;39838;59.938;30.642;2023-08-17T12:27:25;9.93;;;5.00;;
48925;SDS011;39838;59.938;30.642;2023-08-17T12:29:52;10.70;;;5.07;;
48925;SDS011;39838;59.938;30.642;2023-08-17T12:32:19;8.45;;;5.20;;
48925;SDS011;39838;59.938;30.642;2023-08-17T12:34:46;8.63;;;5.05;;
48925;SDS011;39838;59.938;30.642;2023-08-17T12:37:18;8.82;;;4.82;;
48925;SDS011;39838;59.938;30.642;2023-08-17T12:39:46;8.05;;;4.65;;
48925;SDS011;39838;59.938;30.642;2023-08-17T12:42:15;6.63;;;4.40;;
48925;SDS011;39838;59.938;30.642;2023-08-17T12:44:43;8.77;;;4.78;;
48925;SDS011;39838;59.938;30.642;2023-08-17T12:47:11;6.55;;;4.68;;
48925;SDS011;39838;59.938;30.642;2023-08-17T12:49:38;6.90;;;4.40;;
48925;SDS011;39838;59.938;30.642;2023-08-17T12:52:05;7.78;;;4.63;;
48925;SDS011;39838;59.938;30.642;2023-08-17T12:54:32;6.38;;;4.43;;
48925;SDS011;39838;59.938;30.642;2023-08-17T12:56:59;6.38;;;4.47;;
48925;SDS011;39838;59.938;30.642;2023-08-17T12:59:29;6.57;;;4.40;;
48925;SDS011;39838;59.938;30.642;2023-08-17T13:01:57;6.65;;;4.53;;
48925;SDS011;39838;59.938;30.642;2023-08-17T13:04:24;8.68;;;4.75;;
48925;SDS011;39838;59.938;30.642;2023-08-17T13:06:51;8.15;;;4.57;;
48925;SDS011;39838;59.938;30.642;2023-08-17T13:09:20;10.88;;;5.53;;
48925;SDS011;39838;59.938;30.642;2023-08-17T13:11:48;7.78;;;4.65;;
48925;SDS011;39838;59.938;30.642;2023-08-17T13:14:15;8.95;;;4.70;;
48925;SDS011;39838;59.938;30.642;2023-08-17T13:16:44;8.05;;;4.70;;
48925;SDS011;39838;59.938;30.642;2023-08-17T13:19:11;8.20;;;5.20;;
48925;SDS011;39838;59.938;30.642;2023-08-17T13:21:38;6.82;;;4.68;;
48925;SDS011;39838;59.938;30.642;2023-08-17T13:24:05;7.25;;;4.85;;
48925;SDS011;39838;59.938;30.642;2023-08-17T13:26:34;8.30;;;4.82;;
48925;SDS011;39838;59.938;30.642;2023-08-17T13:29:01;9.80;;;5.30;;
48925;SDS011;39838;59.938;30.642;2023-08-17T13:31:28;8.48;;;4.75;;
48925;SDS011;39838;59.938;30.642;2023-08-17T13:33:58;5.63;;;4.55;;
48925;SDS011;39838;59.938;30.642;2023-08-17T13:36:25;7.68;;;5.18;;
48925;SDS011;39838;59.938;30.642;2023-08-17T13:38:52;9.60;;;5.25;;
48925;SDS011;39838;59.938;30.642;2023-08-17T13:41:19;8.32;;;5.32;;
48925;SDS011;39838;59.938;30.642;2023-08-17T13:43:47;7.43;;;5.15;;
48925;SDS011;39838;59.938;30.642;2023-08-17T13:46:14;13.80;;;5.80;;
48925;SDS011;39838;59.938;30.642;2023-08-17T13:48:41;8.80;;;5.05;;
48925;SDS011;39838;59.938;30.642;2023-08-17T13:51:10;8.27;;;5.07;;
48925;SDS011;39838;59.938;30.642;2023-08-17T13:53:37;7.65;;;4.30;;
48925;SDS011;39838;59.938;30.642;2023-08-17T13:56:05;6.95;;;3.88;;
48925;SDS011;39838;59.938;30.642;2023-08-17T13:58:32;7.07;;;4.07;;
48925;SDS011;39838;59.938;30.642;2023-08-17T14:01:00;7.35;;;3.70;;
48925;SDS011;39838;59.938;30.642;2023-08-17T14:03:27;8.77;;;3.88;;
48925;SDS011;39838;59.938;30.642;2023-08-17T14:05:54;5.63;;;3.80;;
48925;SDS011;39838;59.938;30.642;2023-08-17T14:08:23;8.43;;;3.78;;
48925;SDS011;39838;59.938;30.642;2023-08-17T14:10:50;4.72;;;3.33;;
48925;SDS011;39838;59.938;30.642;2023-08-17T14:13:18;7.35;;;3.40;;
48925;SDS011;39838;59.938;30.642;2023-08-17T14:15:45;7.47;;;3.50;;
48925;SDS011;39838;59.938;30.642;2023-08-17T14:18:12;5.10;;;3.08;;
48925;SDS011;39838;59.938;30.642;2023-08-17T14:20:39;6.38;;;3.00;;
48925;SDS011;39838;59.938;30.642;2023-08-17T14:23:06;5.07;;;3.03;;
48925;SDS011;39838;59.938;30.642;2023-08-17T14:25:35;7.93;;;2.97;;
48925;SDS011;39838;59.938;30.642;2023-08-17T14:28:03;6.38;;;2.80;;
48925;SDS011;39838;59.938;30.642;2023-08-17T14:30:32;15.10;;;2.72;;
48925;SDS011;39838;59.938;30.642;2023-08-17T14:33:00;5.30;;;2.50;;